createdAt,value
2023-03-06T00:00:15.768Z,32.39
2023-03-06T00:01:15.928Z,35.34
2023-03-06T00:02:15.938Z,36.99
2023-03-06T00:03:16.016Z,35.66
2023-03-06T00:04:16.101Z,34.67
2023-03-06T00:05:16.177Z,35.91
2023-03-06T00:06:16.328Z,35.18
2023-03-06T00:07:16.340Z,34.41
2023-03-06T00:08:16.397Z,36.55
2023-03-06T00:09:16.479Z,34.07
2023-03-06T00:10:16.561Z,36.70
2023-03-06T00:11:16.646Z,37.93
2023-03-06T00:12:16.709Z,33.26
2023-03-06T00:13:16.773Z,39.71
2023-03-06T00:14:16.896Z,36.20
2023-03-06T00:15:16.922Z,34.10
2023-03-06T00:16:17.031Z,35.09
2023-03-06T00:17:17.097Z,37.03
2023-03-06T00:18:17.300Z,32.62
2023-03-06T00:19:17.251Z,34.95
2023-03-06T00:20:17.337Z,33.41
2023-03-06T00:21:17.408Z,35.51
2023-03-06T00:22:17.480Z,36.83
2023-03-06T00:23:17.561Z,35.09
2023-03-06T00:24:17.638Z,36.54
2023-03-06T00:25:17.806Z,35.92
2023-03-06T00:26:17.801Z,35.90
2023-03-06T00:27:17.896Z,34.75
2023-03-06T00:28:18.028Z,33.36
2023-03-06T00:29:18.051Z,34.37
2023-03-06T00:30:18.128Z,32.87
2023-03-06T00:31:18.274Z,34.87
2023-03-06T00:32:18.351Z,35.30
2023-03-06T00:33:18.370Z,35.48
2023-03-06T00:34:18.469Z,33.69
2023-03-06T00:35:18.568Z,36.45
2023-03-06T00:36:18.642Z,31.39
2023-03-06T00:37:18.686Z,36.27
2023-03-06T00:38:18.767Z,32.39
2023-03-06T00:39:18.839Z,35.63
2023-03-06T00:40:19.359Z,31.46
2023-03-06T00:41:19.004Z,31.36
2023-03-06T00:42:19.093Z,34.93
2023-03-06T00:43:19.182Z,30.30
2023-03-06T00:44:19.268Z,31.99
2023-03-06T00:45:19.351Z,35.10
2023-03-06T00:46:19.438Z,36.60
2023-03-06T00:47:19.522Z,33.72
2023-03-06T00:48:19.613Z,33.62
2023-03-06T00:49:19.708Z,33.24
2023-03-06T00:50:19.790Z,30.64
2023-03-06T00:51:19.883Z,33.93
2023-03-06T00:52:19.969Z,34.68
2023-03-06T00:53:20.048Z,34.11
2023-03-06T00:54:20.130Z,31.57
2023-03-06T00:55:20.295Z,35.93
2023-03-06T00:56:20.311Z,34.25
2023-03-06T00:57:20.398Z,34.72
2023-03-06T00:58:20.478Z,35.23
2023-03-06T00:59:20.628Z,33.99
2023-03-06T01:00:20.655Z,35.49
2023-03-06T01:01:20.790Z,34.83
2023-03-06T01:02:20.842Z,32.32
2023-03-06T01:03:20.913Z,35.26
2023-03-06T01:04:21.071Z,35.21
2023-03-06T01:05:21.091Z,35.83
2023-03-06T01:06:21.159Z,32.15
2023-03-06T01:07:21.245Z,34.55
2023-03-06T01:08:21.317Z,32.60
2023-03-06T01:09:21.399Z,34.30
2023-03-06T01:10:21.483Z,35.16
2023-03-06T01:11:21.564Z,31.77
2023-03-06T01:12:23.471Z,31.76
2023-03-06T01:13:21.717Z,33.16
2023-03-06T02:11:25.608Z,35.82
2023-03-06T02:59:27.877Z,31.11
2023-03-06T03:08:27.772Z,32.83
2023-03-06T03:09:27.876Z,32.37
2023-03-06T03:10:27.841Z,29.03
2023-03-06T03:11:27.887Z,29.68
2023-03-06T03:12:27.914Z,31.76
2023-03-06T03:13:27.967Z,31.73
2023-03-06T03:14:28.029Z,27.38
2023-03-06T03:15:28.052Z,30.76
2023-03-06T03:16:28.148Z,29.63
2023-03-06T03:17:28.130Z,30.90
2023-03-06T03:18:28.181Z,29.52
2023-03-06T03:19:28.883Z,30.39
2023-03-06T03:20:28.275Z,34.99
2023-03-06T03:21:28.316Z,28.30
2023-03-06T03:22:28.359Z,28.25
2023-03-06T03:23:28.409Z,29.08
2023-03-06T03:24:28.467Z,34.08
2023-03-06T03:25:28.469Z,30.45
2023-03-06T03:26:28.528Z,32.78
2023-03-06T03:27:28.560Z,33.67
2023-03-06T03:28:28.605Z,30.86
2023-03-06T03:29:28.647Z,30.05
2023-03-06T03:30:28.702Z,32.04
2023-03-06T03:31:28.866Z,30.06
2023-03-06T03:32:28.818Z,31.56
2023-03-06T03:33:28.827Z,31.87
2023-03-06T03:34:28.874Z,29.60
2023-03-06T03:35:28.938Z,28.77
2023-03-06T03:36:28.963Z,32.03
2023-03-06T03:37:29.009Z,33.00
2023-03-06T03:38:29.046Z,29.92
2023-03-06T03:39:29.092Z,29.55
2023-03-06T03:40:29.136Z,29.23
2023-03-06T03:41:29.177Z,31.97
2023-03-06T03:42:29.239Z,27.86
2023-03-06T03:43:29.399Z,30.14
2023-03-06T03:44:29.895Z,28.65
2023-03-06T03:45:29.368Z,27.90
2023-03-06T03:46:29.495Z,30.04
2023-03-06T03:47:29.467Z,30.31
2023-03-06T03:48:29.511Z,33.39
2023-03-06T03:49:29.564Z,33.76
2023-03-06T03:50:29.607Z,26.92
2023-03-06T03:51:29.654Z,31.39
2023-03-06T03:52:29.706Z,30.47
2023-03-06T03:53:29.748Z,28.31
2023-03-06T03:54:29.846Z,26.74
2023-03-06T03:55:29.889Z,31.89
2023-03-06T03:56:30.394Z,27.97
2023-03-06T03:57:29.947Z,30.86
2023-03-06T03:58:29.983Z,32.40
2023-03-06T03:59:30.024Z,32.79
2023-03-06T04:00:30.073Z,28.22
2023-03-06T04:01:30.109Z,32.87
2023-03-06T04:02:30.149Z,29.81
2023-03-06T04:03:30.208Z,30.93
2023-03-06T04:04:30.272Z,29.67
2023-03-06T04:05:30.302Z,28.99
2023-03-06T04:06:30.338Z,32.58
2023-03-06T04:07:30.387Z,30.92
2023-03-06T04:08:30.431Z,31.80
2023-03-06T04:09:30.466Z,30.46
2023-03-06T04:10:30.514Z,29.92
2023-03-06T04:11:30.567Z,26.01
2023-03-06T04:12:30.614Z,30.98
2023-03-06T04:13:30.660Z,27.93
2023-03-06T04:14:30.698Z,30.06
2023-03-06T04:15:30.733Z,31.07
2023-03-06T04:16:30.818Z,31.39
2023-03-06T04:17:30.821Z,28.82
2023-03-06T04:18:30.968Z,33.64
2023-03-06T04:19:30.974Z,33.86
2023-03-06T04:20:30.965Z,26.82
2023-03-06T06:47:38.055Z,172.42
2023-03-06T07:09:37.749Z,248.91
2023-03-06T07:10:37.756Z,250.00
2023-03-06T07:11:37.730Z,247.78
2023-03-06T07:12:37.727Z,249.77
2023-03-06T07:13:37.723Z,250.00
2023-03-06T07:14:37.726Z,248.34
2023-03-06T07:15:38.804Z,248.99
2023-03-06T07:16:37.743Z,252.22
2023-03-06T07:17:38.690Z,249.45
2023-03-06T07:18:37.957Z,252.78
2023-03-06T07:19:38.669Z,260.00
2023-03-06T07:20:37.658Z,271.06
2023-03-06T07:21:37.664Z,286.61
2023-03-06T07:22:50.210Z,258.72
2023-03-06T07:23:39.450Z,258.82
2023-03-06T07:24:37.642Z,255.76
2023-03-06T07:26:37.647Z,253.59
2023-03-06T07:27:37.674Z,250.72
2023-03-06T07:28:51.226Z,249.47
2023-03-06T07:29:38.665Z,249.63
2023-03-06T07:30:37.635Z,249.86
2023-03-06T07:31:38.671Z,249.69
2023-03-06T07:32:37.674Z,249.56
2023-03-06T07:33:38.451Z,248.02
2023-03-06T07:35:37.685Z,245.20
2023-03-06T07:36:37.629Z,244.92
2023-03-06T07:37:37.635Z,244.36
2023-03-06T07:39:37.964Z,242.45
2023-03-06T07:40:37.634Z,242.46
2023-03-06T07:41:37.661Z,241.84
2023-03-06T07:42:37.732Z,240.50
2023-03-06T07:43:37.815Z,240.01
2023-03-06T07:44:37.896Z,238.02
2023-03-06T07:45:37.946Z,240.03
2023-03-06T07:46:38.971Z,238.80
2023-03-06T07:47:38.120Z,237.58
2023-03-06T07:48:38.127Z,236.56
2023-03-06T07:49:38.211Z,236.02
2023-03-06T07:50:38.245Z,235.02
2023-03-06T07:51:38.310Z,235.00
2023-03-06T07:52:38.334Z,233.64
2023-03-06T07:53:38.902Z,232.60
2023-03-06T07:54:38.502Z,234.34
2023-03-06T07:55:38.436Z,233.35
2023-03-06T07:56:38.451Z,231.23
2023-03-06T07:57:38.471Z,232.03
2023-03-06T07:58:38.469Z,230.59
2023-03-06T07:59:38.529Z,229.69
2023-03-06T08:00:38.549Z,228.50
2023-03-06T08:01:38.570Z,227.96
2023-03-06T08:02:38.616Z,227.66
2023-03-06T08:03:38.631Z,226.57
2023-03-06T08:04:38.592Z,226.03
2023-03-06T08:05:39.470Z,225.61
2023-03-06T08:06:38.639Z,225.23
2023-03-06T08:07:38.675Z,224.41
2023-03-06T08:08:38.678Z,224.19
2023-03-06T08:09:38.713Z,224.58
2023-03-06T08:10:38.786Z,222.36
2023-03-06T08:11:38.980Z,221.82
2023-03-06T08:12:38.855Z,222.69
2023-03-06T08:13:38.903Z,222.73
2023-03-06T08:14:38.990Z,221.26
2023-03-06T08:15:39.003Z,218.67
2023-03-06T08:16:39.509Z,219.82
2023-03-06T08:17:39.027Z,217.58
2023-03-06T08:18:39.039Z,215.39
2023-03-06T08:19:39.031Z,218.81
2023-03-06T08:20:39.063Z,219.63
2023-03-06T08:21:39.100Z,214.10
2023-03-06T08:22:39.979Z,213.20
2023-03-06T08:23:39.189Z,209.96
2023-03-06T08:24:39.178Z,211.96
2023-03-06T08:25:39.219Z,211.16
2023-03-06T08:26:39.244Z,211.32
2023-03-06T08:27:39.353Z,210.79
2023-03-06T08:28:39.372Z,208.98
2023-03-06T08:29:39.345Z,209.20
2023-03-06T08:30:39.426Z,208.28
2023-03-06T08:31:39.534Z,208.47
2023-03-06T08:32:39.648Z,206.70
2023-03-06T08:33:39.595Z,206.74
2023-03-06T08:34:39.626Z,206.49
2023-03-06T08:35:39.710Z,207.23
2023-03-06T08:36:39.761Z,206.57
2023-03-06T08:37:39.859Z,207.65
2023-03-06T08:38:39.909Z,206.73
2023-03-06T08:39:39.909Z,205.30
2023-03-06T08:40:41.047Z,205.74
2023-03-06T08:41:40.058Z,203.92
2023-03-06T08:42:40.134Z,204.67
2023-03-06T08:43:40.192Z,203.48
2023-03-06T08:44:40.250Z,201.77
2023-03-06T08:45:40.416Z,202.43
2023-03-06T08:46:40.409Z,202.41
2023-03-06T08:47:40.467Z,202.24
2023-03-06T08:48:40.975Z,200.46
2023-03-06T08:49:40.605Z,201.67
2023-03-06T08:50:40.667Z,201.10
2023-03-06T08:51:40.750Z,199.29
2023-03-06T08:52:40.813Z,198.18
2023-03-06T08:53:43.401Z,201.87
2023-03-06T08:54:40.865Z,200.27
2023-03-06T08:55:40.921Z,200.22
2023-03-06T08:56:40.868Z,199.79
2023-03-06T08:57:40.869Z,199.73
2023-03-06T08:58:40.880Z,198.29
2023-03-06T08:59:40.890Z,197.80
2023-03-06T09:00:40.956Z,195.93
2023-03-06T09:01:40.960Z,196.49
2023-03-06T09:02:40.946Z,197.58
2023-03-06T09:03:40.925Z,197.33
2023-03-06T09:04:40.951Z,195.03
2023-03-06T09:05:40.928Z,195.03
2023-03-06T09:06:40.923Z,195.81
2023-03-06T09:07:40.927Z,194.61
2023-03-06T09:08:40.923Z,193.78
2023-03-06T09:09:40.920Z,193.69
2023-03-06T09:10:40.974Z,191.84
2023-03-06T09:11:40.933Z,193.66
2023-03-06T09:12:50.138Z,192.66
2023-03-06T09:13:42.004Z,192.98
2023-03-06T09:14:41.052Z,193.16
2023-03-06T09:15:41.118Z,191.79
2023-03-06T09:16:41.217Z,191.05
2023-03-06T09:17:41.357Z,191.59
2023-03-06T09:18:41.340Z,190.44
2023-03-06T09:19:41.340Z,193.37
2023-03-06T09:20:41.497Z,189.41
2023-03-06T09:21:41.466Z,191.65
2023-03-06T09:22:41.518Z,191.66
2023-03-06T09:23:41.581Z,194.08
2023-03-06T09:24:41.622Z,191.20
2023-03-06T09:25:41.683Z,192.05
2023-03-06T09:26:46.444Z,192.98
2023-03-06T09:27:42.728Z,193.09
2023-03-06T09:28:41.721Z,193.44
2023-03-06T09:29:41.719Z,193.18
2023-03-06T09:30:41.762Z,191.05
2023-03-06T09:31:41.735Z,191.57
2023-03-06T09:32:41.873Z,190.75
2023-03-06T09:33:41.736Z,191.96
2023-03-06T09:34:41.757Z,190.25
2023-03-06T09:35:41.813Z,190.77
2023-03-06T09:36:55.320Z,188.94
2023-03-06T09:37:43.991Z,189.22
2023-03-06T09:38:42.079Z,189.49
2023-03-06T09:39:42.137Z,188.50
2023-03-06T09:40:42.197Z,188.03
2023-03-06T09:41:42.267Z,190.40
2023-03-06T09:42:42.326Z,191.03
2023-03-06T09:43:42.387Z,188.99
2023-03-06T09:44:42.456Z,188.67
2023-03-06T09:45:42.620Z,186.73
2023-03-06T09:46:42.563Z,186.09
2023-03-06T09:47:42.630Z,189.39
2023-03-06T09:48:42.700Z,187.99
2023-03-06T09:49:42.757Z,188.09
2023-03-06T09:50:42.811Z,186.52
2023-03-06T09:51:42.900Z,183.95
2023-03-06T09:52:42.959Z,186.54
2023-03-06T09:53:43.016Z,186.16
2023-03-06T09:54:43.992Z,185.09
2023-03-06T09:55:43.145Z,183.95
2023-03-06T09:56:43.272Z,185.56
2023-03-06T09:57:43.284Z,183.16
2023-03-06T09:58:43.344Z,183.09
2023-03-06T09:59:43.412Z,184.17
2023-03-06T10:00:43.476Z,181.11
2023-03-06T10:01:43.554Z,182.37
2023-03-06T10:02:43.715Z,182.41
2023-03-06T10:03:43.691Z,182.15
2023-03-06T10:04:43.801Z,182.39
2023-03-06T10:05:43.816Z,180.00
2023-03-06T10:06:43.952Z,179.40
2023-03-06T10:07:43.980Z,180.47
2023-03-06T10:08:44.030Z,178.97
2023-03-06T10:09:44.101Z,179.87
2023-03-06T10:10:45.007Z,179.73
2023-03-06T10:11:44.234Z,177.46
2023-03-06T10:12:44.310Z,177.58
2023-03-06T10:13:44.373Z,178.41
2023-03-06T10:14:46.496Z,176.66
2023-03-06T10:15:44.461Z,179.87
2023-03-06T10:16:44.432Z,176.15
2023-03-06T10:17:44.454Z,177.94
2023-03-06T10:18:44.438Z,178.67
2023-03-06T10:19:44.432Z,179.86
2023-03-06T10:20:44.440Z,177.75
2023-03-06T10:21:44.557Z,179.14
2023-03-06T10:22:48.043Z,176.92
2023-03-06T10:23:45.448Z,177.23
2023-03-06T10:24:44.421Z,177.94
2023-03-06T10:25:44.433Z,180.30
2023-03-06T10:26:44.514Z,183.66
2023-03-06T10:27:44.443Z,191.37
2023-03-06T10:28:44.595Z,194.43
2023-03-06T10:29:56.375Z,193.30
2023-03-06T10:30:45.416Z,193.71
2023-03-06T10:31:44.432Z,195.06
2023-03-06T10:32:48.869Z,197.51
2023-03-06T10:33:45.425Z,193.98
2023-03-06T10:34:44.327Z,195.82
2023-03-06T10:35:44.356Z,199.02
2023-03-06T10:36:45.007Z,208.72
2023-03-06T10:37:44.309Z,222.08
2023-03-06T10:38:44.373Z,223.73
2023-03-06T10:39:44.300Z,225.38
2023-03-06T10:40:44.296Z,226.25
2023-03-06T10:41:45.343Z,227.86
2023-03-06T10:42:44.267Z,231.90
2023-03-06T10:43:44.259Z,234.35
2023-03-06T10:44:44.240Z,234.56
2023-03-06T10:45:49.319Z,244.02
2023-03-06T10:47:44.199Z,244.83
2023-03-06T10:53:44.116Z,244.84
2023-03-06T10:54:44.098Z,248.81
2023-03-06T10:55:44.118Z,245.92
2023-03-06T10:56:44.161Z,246.40
2023-03-06T10:57:44.201Z,243.11
2023-03-06T10:58:44.259Z,247.31
2023-03-06T10:59:44.294Z,250.00
2023-03-06T11:00:44.340Z,244.27
2023-03-06T11:01:44.472Z,247.79
2023-03-06T11:02:44.531Z,246.54
2023-03-06T11:03:44.488Z,250.54
2023-03-06T11:04:44.595Z,248.54
2023-03-06T11:05:44.604Z,247.32
2023-03-06T11:07:44.697Z,249.75
2023-03-06T11:08:44.757Z,250.00
2023-03-06T11:09:44.810Z,246.74
2023-03-06T11:10:44.868Z,243.55
2023-03-06T11:11:45.028Z,248.80
2023-03-06T11:12:44.946Z,246.60
2023-03-06T11:13:45.010Z,239.19
2023-03-06T11:14:45.049Z,239.10
2023-03-06T11:15:45.146Z,243.40
2023-03-06T11:16:45.116Z,231.67
2023-03-06T11:17:45.160Z,231.95
2023-03-06T11:18:45.230Z,230.89
2023-03-06T11:19:45.235Z,228.51
2023-03-06T11:20:51.862Z,227.69
2023-03-06T11:21:46.277Z,227.80
2023-03-06T11:22:45.191Z,226.16
2023-03-06T11:23:45.181Z,226.39
2023-03-06T11:24:45.144Z,221.70
2023-03-06T11:25:45.174Z,224.97
2023-03-06T11:26:45.242Z,222.90
2023-03-06T11:27:46.167Z,223.14
2023-03-06T11:28:45.234Z,223.08
2023-03-06T11:29:45.114Z,224.58
2023-03-06T11:30:45.118Z,225.32
2023-03-06T11:31:45.158Z,226.34
2023-03-06T11:32:45.116Z,229.11
2023-03-06T11:33:45.110Z,226.36
2023-03-06T11:34:45.141Z,224.50
2023-03-06T11:35:45.131Z,224.98
2023-03-06T11:36:45.115Z,224.69
2023-03-06T11:37:45.137Z,224.60
2023-03-06T11:38:45.144Z,224.95
2023-03-06T11:39:45.208Z,223.34
2023-03-06T11:40:45.202Z,222.12
2023-03-06T11:41:45.267Z,219.74
2023-03-06T11:42:45.283Z,220.98
2023-03-06T11:43:45.354Z,218.25
2023-03-06T11:44:45.400Z,219.82
2023-03-06T11:45:45.439Z,217.01
2023-03-06T11:46:45.551Z,218.02
2023-03-06T11:47:45.566Z,215.89
2023-03-06T11:48:45.631Z,215.84
2023-03-06T11:49:45.694Z,213.76
2023-03-06T11:50:46.525Z,213.21
2023-03-06T11:51:45.829Z,211.82
2023-03-06T11:52:45.888Z,211.40
2023-03-06T11:53:45.970Z,209.95
2023-03-06T11:54:46.022Z,209.92
2023-03-06T11:55:46.102Z,208.17
2023-03-06T11:56:46.167Z,207.73
2023-03-06T11:57:46.240Z,209.54
2023-03-06T11:58:46.323Z,208.95
2023-03-06T11:59:46.396Z,209.79
2023-03-06T12:00:46.459Z,208.34
2023-03-06T12:01:46.588Z,209.67
2023-03-06T12:02:46.606Z,207.81
2023-03-06T12:03:46.698Z,206.80
2023-03-06T12:04:46.790Z,205.63
2023-03-06T12:05:46.924Z,204.66
2023-03-06T12:06:46.983Z,204.38
2023-03-06T12:07:47.024Z,203.37
2023-03-06T12:08:47.089Z,202.00
2023-03-06T12:09:47.165Z,201.24
2023-03-06T12:10:51.539Z,200.21
2023-03-06T12:11:48.200Z,200.35
2023-03-06T12:12:47.192Z,200.37
2023-03-06T12:13:47.229Z,200.35
2023-03-06T12:14:47.302Z,200.12
2023-03-06T12:15:47.265Z,196.94
2023-03-06T12:16:47.267Z,196.70
2023-03-06T12:17:47.407Z,196.28
2023-03-06T12:18:47.392Z,194.23
2023-03-06T12:19:47.346Z,193.45
2023-03-06T12:20:47.267Z,193.34
2023-03-06T12:21:47.366Z,193.84
2023-03-06T12:22:57.975Z,193.54
2023-03-06T12:23:48.387Z,193.66
2023-03-06T12:24:47.396Z,193.08
2023-03-06T12:25:47.396Z,193.22
2023-03-06T12:26:47.421Z,192.15
2023-03-06T12:27:47.543Z,189.01
2023-03-06T12:28:47.445Z,189.45
2023-03-06T12:29:47.432Z,188.35
2023-03-06T12:30:47.439Z,188.37
2023-03-06T12:31:47.540Z,189.47
2023-03-06T12:32:47.535Z,184.72
2023-03-06T12:33:47.471Z,185.60
2023-03-06T12:34:47.513Z,186.72
2023-03-06T12:35:47.634Z,185.22
2023-03-06T12:36:47.607Z,184.44
2023-03-06T12:37:47.640Z,184.00
2023-03-06T12:38:47.649Z,182.45
2023-03-06T12:39:47.654Z,181.71
2023-03-06T12:40:47.698Z,180.98
2023-03-06T12:41:47.764Z,180.18
2023-03-06T12:42:47.816Z,180.13
2023-03-06T12:43:47.880Z,181.18
2023-03-06T12:44:47.926Z,179.49
2023-03-06T12:45:48.040Z,178.87
2023-03-06T12:46:48.038Z,178.86
2023-03-06T12:47:48.098Z,177.30
2023-03-06T12:48:48.156Z,174.89
2023-03-06T12:49:48.517Z,175.05
2023-03-06T12:50:48.267Z,175.43
2023-03-06T12:51:48.324Z,177.34
2023-03-06T12:52:48.451Z,174.51
2023-03-06T12:53:48.501Z,173.92
2023-03-06T12:54:48.538Z,174.97
2023-03-06T12:55:48.600Z,172.68
2023-03-06T12:56:48.656Z,171.74
2023-03-06T12:57:48.660Z,173.72
2023-03-06T12:58:48.700Z,172.66
2023-03-06T12:59:48.736Z,169.46
2023-03-06T13:00:52.582Z,170.26
2023-03-06T13:01:49.853Z,170.39
2023-03-06T13:02:48.960Z,169.70
2023-03-06T13:03:48.879Z,167.69
2023-03-06T13:04:48.824Z,168.39
2023-03-06T13:05:48.838Z,169.74
2023-03-06T13:06:50.915Z,167.23
2023-03-06T13:07:48.875Z,166.34
2023-03-06T13:08:48.930Z,165.09
2023-03-06T13:09:48.968Z,166.77
2023-03-06T13:10:49.031Z,164.99
2023-03-06T13:11:49.060Z,165.42
2023-03-06T13:12:50.055Z,163.63
2023-03-06T13:13:49.140Z,164.63
2023-03-06T13:14:54.612Z,163.67
2023-03-06T13:15:50.201Z,163.81
2023-03-06T13:16:49.285Z,163.73
2023-03-06T13:17:49.250Z,163.68
2023-03-06T13:18:49.225Z,161.78
2023-03-06T13:19:49.291Z,162.21
2023-03-06T13:20:49.286Z,161.09
2023-03-06T13:21:49.249Z,159.19
2023-03-06T13:22:49.263Z,159.20
2023-03-06T13:23:49.282Z,159.87
2023-03-06T13:24:50.832Z,158.67
2023-03-06T13:25:49.342Z,158.82
2023-03-06T13:26:49.294Z,159.33
2023-03-06T13:27:49.315Z,156.63
2023-03-06T13:28:49.318Z,156.76
2023-03-06T13:29:49.317Z,155.62
2023-03-06T13:30:51.375Z,154.80
2023-03-06T13:31:50.581Z,154.96
2023-03-06T13:32:49.652Z,154.93
2023-03-06T13:33:49.737Z,154.86
2023-03-06T13:34:49.806Z,153.53
2023-03-06T13:35:49.980Z,153.53
2023-03-06T13:36:49.959Z,154.99
2023-03-06T13:37:49.904Z,152.92
2023-03-06T13:38:49.927Z,151.27
2023-03-06T13:39:50.556Z,148.23
2023-03-06T13:40:49.997Z,150.98
2023-03-06T13:41:49.974Z,149.53
2023-03-06T13:42:49.993Z,149.16
2023-03-06T13:43:50.018Z,148.49
2023-03-06T13:44:50.011Z,147.55
2023-03-06T13:45:50.147Z,148.59
2023-03-06T13:46:50.078Z,146.37
2023-03-06T13:48:15.541Z,146.22
2023-03-06T13:48:51.979Z,146.34
2023-03-06T13:49:50.097Z,146.73
2023-03-06T13:50:50.099Z,144.87
2023-03-06T13:51:50.113Z,145.54
2023-03-06T13:52:50.125Z,145.27
2023-03-06T13:53:50.148Z,145.54
2023-03-06T13:54:50.125Z,144.27
2023-03-06T13:55:50.134Z,142.24
2023-03-06T13:56:50.125Z,143.46
2023-03-06T13:57:50.144Z,144.79
2023-03-06T13:58:50.175Z,141.61
2023-03-06T13:59:54.406Z,140.95
2023-03-06T14:00:51.175Z,141.14
2023-03-06T14:01:50.224Z,141.37
2023-03-06T14:02:50.195Z,141.47
2023-03-06T14:03:50.176Z,141.09
2023-03-06T14:04:50.161Z,139.69
2023-03-06T14:05:50.182Z,139.40
2023-03-06T14:06:50.182Z,138.84
2023-03-06T14:07:50.181Z,138.36
2023-03-06T14:08:50.270Z,137.45
2023-03-06T14:09:50.192Z,137.38
2023-03-06T14:10:50.207Z,136.73
2023-03-06T14:11:50.258Z,138.41
2023-03-06T14:12:50.232Z,137.12
2023-03-06T14:13:50.210Z,138.20
2023-03-06T14:14:50.254Z,135.14
2023-03-06T15:25:52.732Z,112.66
2023-03-06T15:26:53.595Z,111.47
2023-03-06T15:27:53.585Z,112.56
2023-03-06T15:28:59.796Z,112.48
2023-03-06T15:29:53.786Z,112.66
2023-03-06T15:30:52.799Z,112.37
2023-03-06T15:31:52.808Z,110.69
2023-03-06T15:32:52.798Z,110.21
2023-03-06T15:33:52.829Z,110.77
2023-03-06T15:34:52.844Z,110.65
2023-03-06T15:35:52.854Z,110.96
2023-03-06T15:36:52.845Z,109.97
2023-03-06T15:37:52.870Z,110.17
2023-03-06T15:38:52.856Z,110.79
2023-03-06T15:39:52.864Z,110.99
2023-03-06T15:40:52.886Z,109.23
2023-03-06T15:41:52.877Z,107.86
2023-03-06T15:42:52.901Z,108.89
2023-03-06T15:43:53.590Z,109.69
2023-03-06T15:44:53.025Z,106.75
2023-03-06T15:45:52.998Z,107.25
2023-03-06T15:46:59.228Z,107.12
2023-03-06T15:47:53.937Z,107.33
2023-03-06T15:48:52.951Z,107.45
2023-03-06T15:49:53.038Z,108.08
2023-03-06T15:50:53.586Z,107.14
2023-03-06T15:51:52.989Z,106.62
2023-03-06T15:52:53.001Z,105.09
2023-03-06T15:53:54.981Z,105.57
2023-03-06T15:54:53.145Z,105.62
2023-03-06T15:55:53.036Z,104.43
2023-03-06T15:56:53.033Z,105.31
2023-03-06T15:57:53.117Z,104.95
2023-03-06T15:58:53.054Z,105.46
2023-03-06T15:59:53.599Z,106.28
2023-03-06T16:00:53.172Z,104.47
2023-03-06T16:01:53.095Z,106.11
2023-03-06T16:02:53.117Z,102.95
2023-03-06T16:03:53.248Z,103.03
2023-03-06T16:04:53.349Z,103.51
2023-03-06T16:05:53.289Z,102.89
2023-03-06T16:06:53.328Z,104.38
2023-03-06T16:07:53.427Z,102.04
2023-03-06T16:08:53.424Z,102.07
2023-03-06T16:09:53.490Z,103.79
2023-03-06T16:10:53.555Z,104.32
2023-03-06T16:11:53.596Z,101.60
2023-03-06T16:12:53.653Z,102.26
2023-03-06T16:13:53.709Z,102.19
2023-03-06T16:14:53.765Z,101.45
2023-03-06T16:15:53.830Z,101.50
2023-03-06T16:16:54.005Z,102.25
2023-03-06T16:17:53.935Z,101.93
2023-03-06T16:18:54.010Z,102.82
2023-03-06T16:19:54.077Z,101.45
2023-03-06T16:20:54.172Z,100.45
2023-03-06T16:21:54.219Z,102.16
2023-03-06T16:22:54.278Z,102.17
2023-03-06T16:23:54.610Z,100.35
2023-03-06T16:24:54.408Z,99.58
2023-03-06T16:25:54.528Z,99.88
2023-03-06T16:26:54.535Z,100.12
2023-03-06T16:27:54.600Z,101.70
2023-03-06T16:28:54.662Z,115.07
2023-03-06T16:29:54.724Z,117.82
2023-03-06T16:30:54.930Z,102.03
2023-03-06T16:31:54.856Z,91.55
2023-03-06T16:32:54.923Z,92.69
2023-03-06T16:33:54.984Z,96.21
2023-03-06T16:34:55.037Z,96.75
2023-03-06T16:35:55.130Z,96.84
2023-03-06T16:36:55.162Z,107.85
2023-03-06T16:37:55.217Z,159.23
2023-03-06T16:38:55.331Z,166.28
2023-03-06T16:39:55.327Z,186.50
2023-03-06T16:40:55.392Z,204.31
2023-03-06T16:41:55.460Z,164.88
2023-03-06T16:42:55.526Z,150.60
2023-03-06T16:43:55.571Z,146.47
2023-03-06T16:44:55.637Z,139.94
2023-03-06T16:45:55.758Z,148.81
2023-03-06T16:46:55.767Z,163.43
2023-03-06T16:47:55.895Z,166.29
2023-03-06T16:48:55.896Z,163.54
2023-03-06T16:49:55.991Z,175.76
2023-03-06T16:50:56.010Z,172.83
2023-03-06T16:51:56.080Z,169.59
2023-03-06T16:52:56.144Z,171.38
2023-03-06T16:53:56.229Z,166.30
2023-03-06T16:54:56.277Z,169.35
2023-03-06T16:55:56.345Z,162.11
2023-03-06T16:56:56.413Z,167.94
2023-03-06T16:57:56.490Z,164.71
2023-03-06T16:58:56.558Z,161.66
2023-03-06T16:59:56.629Z,160.21
2023-03-06T17:00:56.750Z,160.63
2023-03-06T17:01:56.762Z,160.27
2023-03-06T17:02:56.819Z,155.85
2023-03-06T17:03:56.885Z,160.47
2023-03-06T17:04:56.954Z,161.70
2023-03-06T17:05:57.035Z,154.70
2023-03-06T17:06:57.093Z,157.41
2023-03-06T17:07:57.152Z,155.17
2023-03-06T17:08:57.217Z,151.46
2023-03-06T17:09:57.285Z,149.42
2023-03-06T17:10:57.357Z,150.52
2023-03-06T18:31:03.306Z,106.40
2023-03-06T18:32:03.448Z,110.89
2023-03-06T18:33:03.465Z,109.79
2023-03-06T18:34:03.638Z,109.30
2023-03-06T18:35:03.620Z,106.33
2023-03-06T18:36:04.631Z,109.02
2023-03-06T18:37:03.767Z,109.02
2023-03-06T18:38:03.852Z,106.62
2023-03-06T18:39:04.022Z,106.65
2023-03-06T18:40:04.063Z,106.80
2023-03-06T18:41:04.087Z,105.03
2023-03-06T18:42:05.131Z,106.15
2023-03-06T18:43:04.251Z,104.59
2023-03-06T18:44:04.339Z,104.94
2023-03-06T18:45:04.417Z,104.39
2023-03-06T18:46:04.515Z,102.17
2023-03-06T18:47:04.569Z,103.75
2023-03-06T18:48:04.649Z,101.55
2023-03-06T18:49:04.723Z,103.85
2023-03-06T18:50:04.817Z,104.28
2023-03-06T18:51:04.887Z,103.40
2023-03-06T18:52:04.966Z,102.14
2023-03-06T18:53:05.067Z,101.43
2023-03-06T18:54:05.141Z,99.90
2023-03-06T18:55:05.209Z,103.64
2023-03-06T18:56:05.287Z,99.33
2023-03-06T18:57:05.365Z,98.41
2023-03-06T18:58:05.450Z,99.80
2023-03-06T18:59:05.563Z,99.27
2023-03-06T19:00:05.619Z,99.85
2023-03-06T19:01:05.711Z,98.57
2023-03-06T19:02:05.791Z,98.06
2023-03-06T19:03:05.861Z,97.66
2023-03-06T19:04:05.961Z,96.72
2023-03-06T19:05:06.019Z,96.44
2023-03-06T19:06:06.109Z,96.67
2023-03-06T19:07:07.144Z,98.68
2023-03-06T19:08:06.281Z,99.18
2023-03-06T19:09:06.376Z,97.91
2023-03-06T19:10:06.452Z,96.68
2023-03-06T19:11:06.532Z,95.01
2023-03-06T19:12:06.610Z,95.92
2023-03-06T19:13:06.700Z,96.26
2023-03-06T19:14:06.782Z,96.18
2023-03-06T19:15:06.846Z,94.69
2023-03-06T19:16:07.680Z,95.31
2023-03-06T20:34:13.329Z,77.24
2023-03-06T20:35:13.408Z,76.46
2023-03-06T20:36:13.468Z,74.74
2023-03-06T20:37:13.531Z,74.50
2023-03-06T20:38:13.607Z,74.40
2023-03-06T20:39:13.699Z,74.27
2023-03-06T20:40:13.834Z,71.01
2023-03-06T20:41:14.661Z,73.36
2023-03-06T20:42:13.956Z,71.91
2023-03-06T20:43:14.044Z,72.75
2023-03-06T20:44:14.137Z,73.90
2023-03-06T20:45:14.238Z,73.75
2023-03-06T20:46:14.327Z,70.02
2023-03-06T20:47:15.179Z,70.33
2023-03-06T20:48:14.422Z,71.39
2023-03-06T20:49:14.513Z,70.55
2023-03-06T20:50:14.578Z,69.45
2023-03-06T20:51:14.653Z,69.01
2023-03-06T20:52:14.717Z,68.65
2023-03-06T20:53:14.792Z,69.43
2023-03-06T20:54:14.861Z,72.14
2023-03-06T20:55:14.951Z,70.51
2023-03-06T20:56:15.042Z,67.13
2023-03-06T20:57:15.119Z,71.13
2023-03-06T20:58:15.193Z,68.54
2023-03-06T20:59:15.276Z,67.27
2023-03-06T21:00:15.369Z,69.88
2023-03-06T21:01:15.456Z,67.88
2023-03-06T21:02:16.171Z,68.07
2023-03-06T21:03:15.607Z,69.69
2023-03-06T21:04:15.711Z,68.96
2023-03-06T21:05:15.788Z,67.83
2023-03-06T21:06:15.878Z,64.09
2023-03-06T21:07:15.939Z,65.20
2023-03-06T21:08:16.002Z,66.38
2023-03-06T21:09:16.115Z,67.06
2023-03-06T21:10:16.162Z,66.30
2023-03-06T21:11:16.232Z,67.13